Date,TemperatureHighF,TemperatureAvgF,TemperatureLowF,DewpointHighF,DewpointAvgF,DewpointLowF,HumidityHigh,HumidityAvg,HumidityLow,PressureMaxIn,PressureMinIn,WindSpeedMaxMPH,WindSpeedAvgMPH,GustSpeedMaxMPH,PrecipitationSumIn
2013-1-1,37,34,30,34,28,23,91,80,60,0.00,40.00,6,3,17,0.09
2013-1-2,34,31,27,30,28,26,99,91,79,0.00,40.00,2,1,12,0.01
2013-1-3,35,33,31,34,32,28,100,97,78,0.00,40.00,3,0,9,0.09
2013-1-4,31,26,20,31,26,19,100,99,97,0.00,40.00,1,0,3,0.01
2013-1-5,29,27,22,28,27,21,99,98,96,0.00,40.00,3,1,10,0.00
2013-1-6,30,27,19,29,26,18,99,98,95,0.00,40.00,4,1,10,0.00
2013-1-7,32,27,14,29,26,13,100,97,90,0.00,40.00,3,1,11,0.00
2013-1-8,22,16,10,22,15,9,99,97,94,0.00,40.00,1,0,4,0.00
2013-1-9,20,16,12,19,15,10,97,95,93,0.00,40.00,2,1,6,0.00
2013-1-10,26,22,18,25,21,17,98,96,95,0.00,40.00,3,1,13,0.00
2013-1-11,29,25,23,28,25,22,99,97,94,0.00,40.00,3,1,9,0.00
2013-1-12,33,29,24,33,29,24,100,99,98,0.00,40.00,2,1,6,0.00
2013-1-13,35,33,32,35,33,32,100,100,100,0.00,40.00,0,0,4,0.30
2013-1-14,38,33,25,38,32,22,100,96,87,0.00,40.00,6,2,19,0.75
2013-1-15,30,25,22,25,22,19,97,88,73,0.00,40.00,4,2,11,0.01
2013-1-16,26,24,20,26,22,19,99,96,91,0.00,40.00,1,0,5,0.00
2013-1-17,22,17,5,20,16,3,97,94,88,0.00,40.00,2,0,7,0.00
2013-1-18,16,14,12,15,11,9,95,90,80,0.00,40.00,4,2,11,0.00
2013-1-19,25,18,13,24,16,10,94,89,85,0.00,40.00,5,3,16,0.00
2013-1-20,33,28,23,32,27,23,100,96,92,0.00,40.00,5,1,16,0.00
2013-1-21,30,25,18,27,24,17,99,96,90,0.00,40.00,5,2,14,0.01
2013-1-22,35,33,30,32,29,27,92,87,82,0.00,40.00,4,3,11,0.01
2013-1-23,37,32,28,32,29,25,95,87,76,0.00,40.00,4,2,12,0.01
2013-1-24,33,27,22,33,26,22,100,99,95,0.00,40.00,4,1,10,0.01
2013-1-25,33,24,-5,33,19,-10,100,84,50,0.00,40.00,5,3,16,0.00
2013-1-26,6,-4,-15,0,-10,-19,90,78,61,0.00,40.00,2,0,6,0.00
2013-1-27,2,-6,-19,-5,-14,-24,86,69,45,0.00,40.00,3,1,11,0.00
2013-1-28,7,1,-12,3,-8,-18,88,64,48,0.00,40.00,5,3,16,0.00
2013-1-29,13,10,7,11,7,4,91,88,85,0.00,40.00,4,3,12,0.00
2013-1-30,28,20,13,28,18,11,98,93,90,0.00,40.00,4,2,14,0.00
2013-1-31,33,31,27,33,30,27,100,99,96,0.00,40.00,3,0,6,0.01
2013-2-1,29,28,26,28,27,26,99,97,95,0.00,40.00,5,2,13,0.01
2013-2-2,34,30,28,32,29,27,100,98,92,0.00,40.00,3,1,12,0.00
2013-2-3,37,31,20,34,30,19,100,97,86,0.00,40.00,4,1,12,0.00
2013-2-4,34,29,19,34,29,18,100,99,97,0.00,40.00,1,0,4,0.00
2013-2-5,29,25,17,29,25,16,100,99,97,0.00,40.00,1,0,4,0.00
2013-2-6,28,25,20,28,24,19,99,96,92,0.00,40.00,2,0,6,0.00
2013-2-7,30,25,23,28,24,22,99,97,91,0.00,40.00,3,1,9,0.00
2013-2-8,34,28,21,33,28,21,100,99,95,0.00,40.00,1,0,6,0.00
2013-2-9,38,32,26,36,31,26,100,97,92,0.00,40.00,3,1,10,0.00
2013-2-10,34,32,27,34,31,25,100,98,93,0.00,40.00,6,2,17,0.00
2013-2-11,26,21,16,25,17,13,97,85,71,0.00,40.00,4,2,12,0.00
2013-2-12,27,23,17,25,21,15,97,91,77,0.00,40.00,3,2,9,0.00
2013-2-13,32,26,16,28,24,15,98,94,83,0.00,40.00,2,0,6,0.00
2013-2-14,32,29,23,30,27,22,99,95,88,0.00,40.00,3,1,11,0.00
2013-2-15,29,24,11,29,20,9,100,87,68,0.00,40.00,4,2,12,0.00
2013-2-16,28,19,13,18,14,10,92,80,60,0.00,40.00,4,2,10,0.00
2013-2-17,28,22,19,24,20,18,98,92,83,0.00,40.00,3,2,9,0.00
2013-2-18,20,10,-7,19,5,-10,97,80,60,0.00,40.00,3,1,10,0.00
2013-2-19,18,12,10,15,8,4,90,81,71,0.00,40.00,5,3,16,0.00
2013-2-20,25,20,16,22,18,15,98,91,82,0.00,40.00,5,2,15,0.00
2013-2-21,31,26,19,26,24,18,99,94,81,0.00,40.00,1,0,5,0.00
2013-2-22,27,22,11,24,16,8,96,79,61,0.00,40.00,4,2,11,0.00
2013-2-23,29,22,13,24,18,10,98,85,72,0.00,40.00,4,2,11,0.00
2013-2-24,31,24,20,27,22,12,98,93,83,0.00,40.00,2,1,8,0.00
2013-2-25,37,27,4,30,23,2,95,82,67,0.00,40.00,5,2,14,0.00
2013-2-26,39,31,28,26,22,20,84,70,50,0.00,40.00,6,3,14,0.00
2013-2-27,36,29,23,25,21,14,90,74,59,0.00,40.00,5,2,14,0.00
2013-2-28,35,29,25,30,27,23,99,92,73,0.00,40.00,1,0,4,0.00
2013-3-1,37,28,16,29,26,13,100,92,66,0.00,40.00,2,0,6,0.00
2013-3-2,35,25,11,27,22,9,99,88,68,0.00,40.00,4,2,10,0.00
2013-3-3,33,28,20,27,24,19,99,87,75,0.00,40.00,3,1,9,0.00
2013-3-4,36,31,22,29,26,21,96,84,70,0.00,40.00,2,0,4,0.01
2013-3-5,42,30,16,30,25,16,100,82,59,0.00,40.00,1,0,5,0.01
2013-3-6,43,33,25,30,28,24,98,81,59,0.00,40.00,2,0,6,0.02
2013-3-7,41,34,26,34,29,24,96,81,53,0.00,40.00,6,2,15,0.23
2013-3-8,43,35,22,29,26,21,95,73,48,0.00,40.00,4,2,11,0.10
2013-3-9,41,33,27,34,30,26,99,88,64,0.00,40.00,2,0,8,0.12
2013-3-10,39,31,27,31,28,23,98,88,67,0.00,40.00,3,1,9,0.05
2013-3-11,36,29,19,29,24,17,99,84,52,0.00,40.00,3,1,9,0.01
2013-3-12,34,25,5,15,7,3,94,48,30,0.00,40.00,5,3,18,0.01
2013-3-13,30,20,0,5,2,-3,89,46,28,0.00,40.00,4,2,10,0.00
2013-3-14,24,18,13,15,11,2,90,75,56,0.00,40.00,4,2,13,0.00
2013-3-15,32,21,9,15,9,5,85,62,32,0.00,40.00,4,2,11,0.00
2013-3-16,33,21,-2,15,9,-5,92,64,37,0.00,40.00,3,1,8,0.00
2013-3-17,36,22,4,11,7,0,92,56,28,0.00,40.00,2,1,5,0.00
2013-3-18,33,19,4,12,7,1,92,64,33,0.00,40.00,3,1,9,0.00
2013-3-19,30,19,1,8,4,-1,91,57,31,0.00,40.00,4,2,13,0.00
2013-3-20,30,18,-4,7,0,-7,89,51,24,0.00,40.00,2,1,7,0.00
2013-3-21,34,20,-1,15,7,-3,92,63,33,0.00,40.00,2,1,6,0.00
2013-3-22,36,28,17,34,25,14,99,86,73,0.00,40.00,4,1,11,0.07
2013-3-23,41,29,22,27,23,17,99,82,50,0.00,40.00,3,2,11,0.07
2013-3-24,30,24,20,23,20,13,97,83,67,0.00,40.00,3,1,12,0.01
2013-3-25,26,18,7,22,11,-2,97,75,45,0.00,40.00,4,2,13,0.00
2013-3-26,25,12,-6,7,2,-9,93,66,37,0.00,40.00,2,1,7,0.00
2013-3-27,25,12,-8,9,2,-11,90,68,46,0.00,40.00,3,1,9,0.00
2013-3-28,30,26,17,23,19,12,86,73,63,0.00,40.00,3,2,11,0.00
2013-3-29,39,32,26,31,28,23,98,84,65,0.00,40.00,2,1,6,0.12
2013-3-30,44,34,27,36,32,27,100,92,72,0.00,40.00,1,0,5,0.12
2013-3-31,42,30,22,33,28,22,100,90,67,0.00,40.00,2,0,7,0.02
2013-4-1,48,29,17,28,22,16,100,80,38,0.00,40.00,2,0,7,0.00
2013-4-2,46,29,16,25,20,15,95,70,36,0.00,40.00,2,1,6,0.00
2013-4-3,47,32,22,28,23,19,94,71,44,0.00,40.00,3,1,8,0.00
2013-4-4,43,31,15,24,20,14,98,67,38,0.00,40.00,3,1,9,0.00
2013-4-5,41,28,8,19,13,7,96,59,27,0.00,40.00,2,1,7,0.00
2013-4-6,40,25,18,19,17,12,86,72,38,0.00,40.00,3,1,9,0.00
2013-4-7,32,19,9,12,8,2,84,63,32,0.00,40.00,5,2,13,0.00
2013-4-8,29,19,-3,12,7,-5,92,61,39,0.00,40.00,3,2,9,0.00
2013-4-9,30,16,2,11,5,0,92,64,37,0.00,40.00,4,2,12,0.00
2013-4-10,27,16,6,13,7,1,91,70,47,0.00,40.00,4,2,11,0.00
2013-4-11,30,20,5,11,7,0,82,57,36,0.00,40.00,3,2,12,0.01
2013-4-12,32,21,-2,7,3,-4,92,50,29,0.00,40.00,3,2,11,0.01
2013-4-13,38,26,1,10,6,-2,89,45,26,0.00,40.00,4,2,11,0.00
2013-4-14,45,28,7,16,11,4,89,53,22,0.00,40.00,3,1,9,0.01
2013-4-15,42,28,13,22,15,9,85,60,34,0.00,40.00,3,1,12,0.01
2013-4-16,41,28,9,16,13,8,94,56,33,0.00,40.00,3,2,11,0.00
2013-4-17,40,27,7,14,10,5,93,53,25,0.00,40.00,3,1,8,0.00
2013-4-18,44,33,13,19,15,9,83,51,30,0.00,40.00,3,2,9,0.00
2013-4-19,45,34,9,19,16,8,95,50,31,0.00,40.00,4,2,10,0.00
2013-4-20,49,31,17,25,18,13,85,60,31,0.00,40.00,3,1,7,0.00
2013-4-21,38,32,21,34,28,19,99,86,56,0.00,40.00,3,1,14,0.12
2013-4-22,52,35,22,35,28,22,100,78,41,0.00,40.00,2,1,7,0.06
2013-4-23,39,36,33,37,34,28,99,94,80,0.00,40.00,2,1,7,0.48
2013-4-24,51,38,32,39,34,32,100,87,59,0.00,40.00,3,1,8,0.01
2013-4-25,46,38,32,33,20,10,94,49,31,0.00,40.00,7,4,21,0.00
2013-4-26,48,32,19,19,11,7,71,45,22,0.00,40.00,5,2,14,0.00
2013-4-27,47,36,20,23,19,17,87,53,32,0.00,40.00,4,2,14,0.00
2013-4-28,47,36,17,19,15,11,81,45,29,0.00,40.00,3,2,11,0.00
2013-4-29,50,31,20,27,19,15,83,65,36,0.00,40.00,3,1,8,0.00
2013-4-30,44,38,31,34,28,24,93,70,57,0.00,40.00,3,1,11,0.00
2013-5-1,46,36,29,33,29,27,99,77,52,0.00,40.00,3,1,8,0.00
2013-5-2,45,37,32,39,35,27,99,90,79,0.00,40.00,2,0,6,0.24
2013-5-3,42,37,31,38,33,26,100,88,65,0.00,40.00,4,1,12,0.34
2013-5-4,44,37,28,36,30,26,98,79,52,0.00,40.00,3,1,8,0.10
2013-5-5,53,35,25,30,26,23,98,73,33,0.00,40.00,3,1,8,0.01
2013-5-6,52,36,27,29,26,23,90,68,36,0.00,40.00,4,2,11,0.00
2013-5-7,49,39,29,34,29,26,94,68,43,0.00,40.00,3,1,7,0.00
2013-5-8,54,39,27,34,28,25,100,70,35,0.00,40.00,3,1,10,0.00
2013-5-9,51,41,28,36,30,25,91,68,45,0.00,40.00,2,0,7,0.00
2013-5-10,58,43,26,34,29,-100,99,64,33,0.00,40.00,2,1,8,0.00
2013-5-11,50,43,37,42,38,32,99,85,66,0.00,40.00,3,1,8,0.03
2013-5-12,54,45,36,44,38,32,100,79,46,0.00,40.00,3,0,9,0.03
2013-5-13,53,43,33,43,37,33,99,80,46,0.00,40.00,3,1,7,0.03
2013-5-14,51,38,28,37,28,16,100,73,26,0.00,40.00,4,1,10,0.07
2013-5-15,56,37,27,34,26,19,94,68,25,0.00,40.00,3,1,9,0.00
2013-5-16,40,34,31,39,18,-100,98,95,87,0.00,40.00,4,1,10,0.28
2013-5-17,49,38,32,40,28,-100,100,85,51,0.00,40.00,4,1,10,0.35
2013-5-18,44,35,28,32,23,12,98,65,31,0.00,40.00,4,2,12,0.02
2013-5-19,49,39,20,21,16,11,96,45,25,0.00,40.00,3,2,10,0.01
2013-5-20,51,38,23,33,25,17,82,62,37,0.00,40.00,4,2,11,0.00
2013-5-21,53,43,35,38,34,32,90,71,56,0.00,40.00,3,1,8,0.00
2013-5-22,49,43,36,43,39,34,98,86,71,0.00,40.00,1,0,6,0.01
2013-5-23,58,46,39,45,41,35,99,85,54,0.00,40.00,2,1,9,0.01
2013-5-24,65,48,34,41,37,33,98,69,33,0.00,40.00,3,1,9,0.01
2013-5-25,64,46,33,42,37,31,96,74,36,0.00,40.00,4,2,11,0.00
2013-5-26,57,43,30,45,39,30,100,88,57,0.00,40.00,2,1,6,0.05
2013-5-27,65,49,39,45,41,36,99,78,44,0.00,40.00,4,1,10,0.03
2013-5-28,76,49,31,46,37,31,100,72,27,0.00,40.00,3,1,9,0.01
2013-5-29,75,54,40,42,38,34,81,59,26,0.00,40.00,4,1,9,0.00
2013-5-30,68,49,37,47,41,36,99,77,39,0.00,40.00,4,1,11,0.00
2013-5-31,60,47,40,47,43,39,99,87,57,0.00,40.00,4,1,10,0.00
2013-6-1,57,46,42,45,43,41,99,89,54,0.00,40.00,3,1,9,0.02
2013-6-2,60,48,34,44,40,34,100,77,52,0.00,40.00,2,1,9,0.03
2013-6-3,59,49,39,43,39,32,99,71,40,0.00,40.00,4,1,11,0.01
2013-6-4,53,46,38,49,42,37,97,86,72,0.00,40.00,3,1,6,0.15
2013-6-5,60,46,33,46,38,33,100,75,47,0.00,40.00,2,1,8,0.01
2013-6-6,68,49,29,43,35,29,100,65,30,0.00,40.00,4,2,12,0.00
2013-6-7,72,51,37,42,36,34,89,62,27,0.00,40.00,4,1,12,0.00
2013-6-8,76,56,44,43,40,36,87,59,27,0.00,40.00,3,1,9,0.00
2013-6-9,76,58,44,47,40,37,79,56,27,0.00,40.00,3,1,9,0.00
2013-6-10,75,56,42,47,40,38,89,60,28,0.00,40.00,3,1,9,0.00
2013-6-11,76,55,41,46,40,38,90,64,27,0.00,40.00,4,1,11,0.00
2013-6-12,70,50,42,46,41,37,85,72,38,0.00,40.00,1,0,7,0.00
2013-6-13,68,48,37,46,42,36,99,82,46,0.00,40.00,3,1,10,0.00
2013-6-14,76,49,37,49,43,36,100,84,35,0.00,40.00,2,1,9,0.00
2013-6-15,69,47,38,49,43,37,100,88,48,0.00,40.00,1,0,7,0.00
2013-6-16,67,50,42,50,44,41,99,83,42,0.00,40.00,0,0,5,0.00
2013-6-17,81,56,50,51,47,45,84,73,32,0.00,40.00,2,1,5,0.00
2013-6-18,78,60,50,54,49,44,90,67,38,0.00,40.00,3,1,10,0.00
2013-6-19,63,54,43,54,48,43,100,82,54,0.00,40.00,1,0,8,0.07
2013-6-20,57,48,46,51,46,45,99,95,79,0.00,40.00,1,0,4,0.02
2013-6-22,55,52,35,48,46,34,99,80,69,0.00,40.00,1,1,6,0.01
2013-6-23,62,54,45,52,48,45,100,82,58,0.00,40.00,1,0,7,0.04
2013-6-24,64,54,47,53,48,46,99,84,61,0.00,40.00,2,0,7,0.06
2013-6-25,70,50,43,56,46,41,98,89,61,0.00,40.00,0,0,4,0.03
2013-6-26,66,55,49,61,51,47,94,86,71,0.00,40.00,2,0,7,0.03
2013-6-27,60,52,49,54,50,49,99,92,68,0.00,40.00,2,1,7,0.03
2013-6-28,61,54,47,53,50,46,97,85,71,0.00,40.00,2,1,9,0.00
2013-6-29,59,52,48,51,49,43,95,88,65,0.00,40.00,2,0,8,0.00
2013-6-30,62,52,43,52,48,42,99,86,66,0.00,40.00,1,0,8,0.19
2013-7-1,57,51,46,52,48,46,100,91,66,0.00,40.00,2,0,10,0.33
2013-7-2,59,51,46,50,47,45,100,87,61,0.00,40.00,3,1,11,0.10
2013-7-3,55,50,44,48,46,43,99,88,75,0.00,40.00,2,0,6,0.01
2013-7-4,54,50,45,50,47,44,100,93,80,0.00,40.00,1,0,8,0.25
2013-7-5,58,52,45,53,49,45,99,90,74,0.00,40.00,2,0,8,0.08
2013-7-6,58,52,46,54,50,46,100,94,80,0.00,40.00,1,0,5,0.16
2013-7-7,57,51,47,53,50,46,100,95,87,0.00,40.00,2,0,9,0.56
2013-7-8,62,50,38,52,46,37,100,87,64,0.00,40.00,3,1,13,0.02
2013-7-9,65,51,43,48,45,42,97,81,55,0.00,40.00,2,1,11,0.00
2013-7-10,67,51,45,50,40,-100,93,75,43,0.00,40.00,1,0,5,0.00
2013-7-11,73,57,43,51,47,41,94,72,43,0.00,40.00,1,0,7,0.00
2013-7-12,67,53,46,51,47,45,95,83,49,0.00,40.00,1,0,8,0.00
2013-7-13,69,57,47,53,48,43,97,72,53,0.00,40.00,3,1,10,0.00
2013-7-14,65,54,47,53,50,46,100,84,65,0.00,40.00,3,1,10,0.00
2013-7-15,62,53,43,55,49,42,100,88,71,0.00,40.00,1,0,7,0.00
2013-7-16,66,61,55,55,52,51,88,75,63,0.00,40.00,1,1,7,0.00
2013-7-17,69,58,54,58,54,51,95,86,63,0.00,40.00,3,1,13,0.00
2013-7-18,75,63,56,61,57,54,94,81,59,0.00,40.00,3,2,13,0.00
2013-7-19,69,59,53,55,52,49,88,77,51,0.00,40.00,3,1,11,0.00
2013-7-20,71,57,50,53,45,-100,91,71,38,0.00,40.00,2,1,10,0.00
2013-7-21,71,55,42,51,45,40,93,71,40,0.00,40.00,2,0,8,0.00
2013-7-22,73,60,44,48,46,41,94,62,38,0.00,40.00,2,1,10,0.00
2013-7-23,75,60,51,55,50,44,91,71,49,0.00,40.00,1,0,7,0.00
2013-7-24,74,57,47,54,50,45,92,79,49,0.00,40.00,1,0,6,0.00
2013-7-25,72,63,57,61,56,50,90,78,61,0.00,40.00,2,1,9,0.01
2013-7-26,67,58,53,60,54,51,98,90,77,0.00,40.00,1,0,7,0.03
2013-7-27,67,56,46,59,53,46,100,90,70,0.00,40.00,2,1,6,0.03
2013-7-28,68,54,47,59,52,47,100,93,67,0.00,40.00,1,0,6,0.00
2013-7-29,71,58,49,58,53,48,99,87,63,0.00,40.00,2,1,10,0.00
2013-7-30,70,57,47,57,52,46,99,85,62,0.00,40.00,2,1,10,0.00
2013-7-31,69,56,46,56,51,45,100,87,61,0.00,40.00,2,1,9,0.00
2013-8-1,70,58,45,57,53,44,100,84,63,0.00,40.00,2,0,7,0.00
2013-8-2,69,58,49,57,53,48,99,86,64,0.00,40.00,2,0,7,0.01
2013-8-3,67,59,53,53,51,49,93,75,57,0.00,40.00,3,1,13,0.00
2013-8-4,63,55,49,58,53,48,99,91,76,0.00,40.00,1,0,6,0.21
2013-8-5,61,55,50,56,53,50,100,95,83,0.00,40.00,1,0,5,0.09
2013-8-6,64,56,49,55,52,49,99,87,67,0.00,40.00,2,0,9,0.02
2013-8-7,66,57,52,55,52,49,97,83,65,0.00,40.00,2,0,9,0.01
2013-8-8,58,53,49,53,50,47,99,91,71,0.00,40.00,1,0,10,0.17
2013-8-9,60,53,47,56,52,47,100,96,84,0.00,40.00,1,0,6,0.27
2013-8-10,63,55,47,54,50,47,100,86,65,0.00,40.00,1,0,8,0.01
2013-8-11,56,52,47,55,51,46,100,98,94,0.00,40.00,1,0,7,0.86
2013-8-21,56,53,51,55,52,49,99,96,87,0.00,40.00,1,0,9,0.50
2013-8-22,57,54,52,56,53,52,100,99,96,0.00,40.00,2,0,9,0.19
2013-8-23,68,55,47,55,50,45,99,87,48,0.00,40.00,2,1,13,0.01
2013-8-24,69,52,41,52,44,40,99,79,42,0.00,40.00,2,0,13,0.01
2013-8-25,68,52,34,49,44,33,99,76,46,0.00,40.00,1,0,7,0.01
2013-8-26,63,47,37,49,42,36,99,86,47,0.00,40.00,1,0,8,0.00
2013-8-27,58,48,45,51,47,45,99,95,74,0.00,40.00,0,0,3,0.00
2013-12-26,8,4,-5,3,-1,-10,81,80,78,0.00,40.00,0,0,6,0.00
2013-12-27,14,6,-1,11,0,-6,86,78,72,0.00,40.00,3,1,12,0.00
2013-12-28,21,16,14,18,14,11,90,88,86,0.00,40.00,3,1,10,0.00
2013-12-29,25,20,15,22,18,13,93,90,85,0.00,40.00,3,1,13,0.00
2013-12-30,21,20,17,19,18,14,94,90,88,0.00,40.00,1,0,6,0.00
2013-12-31,28,27,26,27,26,24,95,94,91,0.00,40.00,4,2,15,0.00
2014-1-1,35,30,29,34,21,-100,99,90,97,0.00,40.00,3,2,16,0.00